PGRO/ROP METAR and TAF weather

Enter ICAO airport designator
Station Type Date Time Source
PGRO METAR 2020/09/22 04:50 UTC NOAA

PGRO 220450Z 23014KT 1SM +RA BR SCT012 BKN018 OVC050 25/22 A2979


Station Type Date Time Source
PGRO Decoded METAR 2020/09/22 04:50 UTC NOAA

Rota Island, N. Mariana Is, Rota International Airport, GU, United States (PGRO) 14-11N 145-15E
Sep 22, 2020 - 12:50 AM EDT / 2020.09.22 0450 UTC
Wind: from the SW (230 degrees) at 16 MPH (14 KT):0
Visibility: 1 mile(s):0
Sky conditions: overcast
Weather: heavy rain; mist
Temperature: 77 F (25 C)
Dew Point: 71 F (22 C)
Relative Humidity: 83%
Pressure (altimeter): 29.79 in. Hg (1008 hPa)
ob: PGRO 220450Z 23014KT 1SM +RA BR SCT012 BKN018 OVC050 25/22 A2979
cycle: 5

Station Type Date Time Source
PGRO TAF 2020/09/21 21:18 UTC NOAA

TAF
AMD PGRO 212116Z 2121/2218 23008KT P6SM VCSH SCT016 BKN100
TEMPO 2121/2123 VRB15KT 3SM SHRA BKN014

Example: see airport list